createdAt,value
2018-09-08T00:01:34.679Z,10.60
2018-09-08T00:04:03.075Z,10.63
2018-09-08T00:06:33.923Z,10.51
2018-09-08T00:09:02.752Z,10.50
2018-09-08T00:11:31.195Z,10.51
2018-09-08T00:13:59.591Z,10.51
2018-09-08T00:16:33.327Z,10.48
2018-09-08T00:19:07.132Z,10.46
2018-09-08T00:21:40.877Z,10.46
2018-09-08T00:24:14.575Z,10.47
2018-09-08T00:26:42.076Z,10.37
2018-09-08T00:29:21.416Z,10.36
2018-09-08T00:31:49.902Z,10.37
2018-09-08T00:34:18.277Z,10.34
2018-09-08T00:36:46.651Z,10.33
2018-09-08T00:39:15.137Z,10.36
2018-09-08T00:41:43.557Z,10.41
2018-09-08T00:44:11.929Z,10.37
2018-09-08T00:46:40.380Z,10.29
2018-09-08T00:49:09.135Z,10.29
2018-09-08T00:51:37.576Z,10.33
2018-09-08T00:54:06.003Z,10.29
2018-09-08T00:56:34.365Z,10.36
2018-09-08T00:59:02.805Z,10.34
2018-09-08T01:01:31.916Z,10.24
2018-09-08T01:04:00.337Z,10.21
2018-09-08T01:06:28.901Z,10.20
2018-09-08T01:08:57.287Z,10.21
2018-09-08T01:11:25.951Z,10.17
2018-09-08T01:13:54.488Z,10.16
2018-09-08T01:16:22.984Z,10.17
2018-09-08T01:18:51.427Z,10.12
2018-09-08T01:21:19.852Z,10.15
2018-09-08T01:23:52.542Z,10.16
2018-09-08T01:26:21.749Z,10.16
2018-09-08T01:28:51.204Z,10.08
2018-09-08T01:31:20.125Z,10.12
2018-09-08T01:33:48.519Z,10.17
2018-09-08T01:36:16.952Z,10.14
2018-09-08T01:38:45.377Z,10.15
2018-09-08T01:41:13.808Z,10.06
2018-09-08T01:43:42.200Z,10.07
2018-09-08T01:46:10.685Z,9.98
2018-09-08T01:48:39.094Z,9.98
2018-09-08T01:51:07.730Z,10.01
2018-09-08T01:53:36.150Z,10.05
2018-09-08T01:56:04.560Z,10.05
2018-09-08T01:58:32.948Z,10.03
2018-09-08T02:01:01.348Z,9.95
2018-09-08T02:03:29.732Z,9.86
2018-09-08T02:05:58.179Z,9.92
2018-09-08T02:08:26.541Z,9.95
2018-09-08T02:10:54.984Z,9.90
2018-09-08T02:13:24.046Z,9.90
2018-09-08T02:15:52.448Z,9.93
2018-09-08T02:18:20.905Z,9.91
2018-09-08T02:20:49.319Z,9.99
2018-09-08T02:23:17.703Z,10.01
2018-09-08T02:25:46.165Z,9.99
2018-09-08T02:28:14.537Z,9.99
2018-09-08T02:30:42.919Z,10.00
2018-09-08T02:33:11.451Z,10.00
2018-09-08T02:35:40.086Z,9.95
2018-09-08T02:38:08.484Z,10.00
2018-09-08T02:40:36.911Z,9.97
2018-09-08T02:43:05.336Z,9.97
2018-09-08T02:45:33.714Z,9.99
2018-09-08T02:48:02.110Z,10.00
2018-09-08T02:50:32.537Z,10.06
2018-09-08T02:53:00.128Z,10.09
2018-09-08T02:55:27.709Z,10.13
2018-09-08T02:57:55.021Z,10.11
2018-09-08T03:00:22.209Z,10.15
2018-09-08T03:02:49.420Z,10.20
2018-09-08T03:05:16.662Z,10.25
2018-09-08T03:07:43.868Z,10.30
2018-09-08T03:10:11.104Z,10.37
2018-09-08T03:12:38.280Z,10.43
2018-09-08T03:15:05.459Z,10.46
2018-09-08T03:17:32.672Z,10.50
2018-09-08T03:19:59.864Z,10.51
2018-09-08T03:22:27.097Z,10.52
2018-09-08T03:24:55.161Z,10.54
2018-09-08T03:27:22.457Z,10.53
2018-09-08T03:29:49.657Z,10.53
2018-09-08T03:32:16.873Z,10.51
2018-09-08T03:34:44.075Z,10.52
2018-09-08T03:37:11.299Z,10.52
2018-09-08T03:39:38.549Z,10.48
2018-09-08T03:42:05.730Z,10.47
2018-09-08T03:44:33.021Z,10.45
2018-09-08T03:47:00.232Z,10.43
2018-09-08T03:49:27.446Z,10.40
2018-09-08T03:51:54.632Z,10.37
2018-09-08T03:54:21.856Z,10.39
2018-09-08T03:56:49.110Z,10.39
2018-09-08T03:59:16.345Z,10.40
2018-09-08T04:01:43.556Z,10.44
2018-09-08T04:04:11.979Z,10.45
2018-09-08T04:06:40.408Z,10.50
2018-09-08T04:09:10.198Z,10.50
2018-09-08T04:11:38.771Z,10.49
2018-09-08T04:14:07.380Z,10.47
2018-09-08T04:16:36.414Z,10.48
2018-09-08T04:19:04.832Z,10.49
2018-09-08T04:21:33.246Z,10.48
2018-09-08T04:24:01.707Z,10.45
2018-09-08T04:26:30.060Z,10.42
2018-09-08T04:28:58.509Z,10.42
2018-09-08T04:31:26.953Z,10.39
2018-09-08T04:33:55.350Z,10.35
2018-09-08T04:36:23.769Z,10.31
2018-09-08T04:38:52.241Z,10.32
2018-09-08T04:41:20.641Z,10.30
2018-09-08T04:43:49.117Z,10.27
2018-09-08T04:46:17.479Z,10.26
2018-09-08T04:48:45.893Z,10.27
2018-09-08T04:51:14.293Z,10.25
2018-09-08T04:53:42.744Z,10.27
2018-09-08T04:56:11.150Z,10.23
2018-09-08T04:58:39.567Z,10.22
2018-09-08T05:01:07.953Z,10.23
2018-09-08T05:03:36.380Z,10.23
2018-09-08T05:06:04.803Z,10.21
2018-09-08T05:08:33.238Z,10.17
2018-09-08T05:11:01.653Z,10.12
2018-09-08T05:13:30.069Z,10.10
2018-09-08T05:15:58.496Z,10.10
2018-09-08T05:18:26.885Z,10.07
2018-09-08T05:20:55.310Z,10.07
2018-09-08T05:23:23.700Z,10.08
2018-09-08T05:25:52.164Z,10.10
2018-09-08T05:28:20.559Z,10.10
2018-09-08T05:30:48.999Z,10.12
2018-09-08T05:33:17.375Z,10.14
2018-09-08T05:35:45.767Z,10.13
2018-09-08T05:38:14.251Z,10.14
2018-09-08T05:40:42.680Z,10.16
2018-09-08T05:43:11.113Z,10.19
2018-09-08T05:45:39.514Z,10.17
2018-09-08T05:48:07.925Z,10.21
2018-09-08T05:50:36.317Z,10.24
2018-09-08T05:53:04.868Z,10.26
2018-09-08T05:55:33.264Z,10.29
2018-09-08T05:58:01.699Z,10.32
2018-09-08T06:00:30.166Z,10.33
2018-09-08T06:02:58.551Z,10.35
2018-09-08T06:05:26.974Z,10.36
2018-09-08T06:07:55.399Z,10.36
2018-09-08T06:10:23.915Z,10.40
2018-09-08T06:12:52.298Z,10.40
2018-09-08T06:15:20.700Z,10.44
2018-09-08T06:17:49.124Z,10.48
2018-09-08T06:20:18.298Z,10.50
2018-09-08T06:22:46.743Z,10.51
2018-09-08T06:25:15.218Z,10.53
2018-09-08T06:27:43.589Z,10.55
2018-09-08T06:30:12.041Z,10.58
2018-09-08T06:32:40.420Z,10.62
2018-09-08T06:35:08.911Z,10.65
2018-09-08T06:37:37.257Z,10.67
2018-09-08T06:40:06.192Z,10.69
2018-09-08T06:42:34.617Z,10.70
2018-09-08T06:45:03.145Z,10.74
2018-09-08T06:47:31.470Z,10.78
2018-09-08T06:49:59.879Z,10.82
2018-09-08T06:52:28.263Z,10.86
2018-09-08T06:54:56.689Z,10.88
2018-09-08T06:57:25.072Z,10.88
2018-09-08T06:59:53.456Z,10.91
2018-09-08T07:02:21.905Z,10.93
2018-09-08T07:04:50.563Z,10.98
2018-09-08T07:07:19.010Z,11.02
2018-09-08T07:09:47.456Z,11.05
2018-09-08T07:12:15.928Z,11.11
2018-09-08T07:14:44.397Z,11.18
2018-09-08T07:17:12.846Z,11.21
2018-09-08T07:19:41.229Z,11.23
2018-09-08T07:22:09.631Z,11.27
2018-09-08T07:24:38.048Z,11.33
2018-09-08T07:27:06.491Z,11.35
2018-09-08T07:29:34.909Z,11.39
2018-09-08T07:32:03.592Z,11.42
2018-09-08T07:34:32.058Z,11.50
2018-09-08T07:37:00.461Z,11.55
2018-09-08T07:39:28.840Z,11.57
2018-09-08T07:41:57.268Z,11.59
2018-09-08T07:44:25.698Z,11.62
2018-09-08T07:46:54.165Z,11.65
2018-09-08T07:49:22.554Z,11.70
2018-09-08T07:51:51.210Z,11.75
2018-09-08T07:54:19.641Z,11.84
2018-09-08T07:56:48.074Z,11.88
2018-09-08T07:59:16.582Z,11.93
2018-09-08T08:01:44.988Z,12.04
2018-09-08T08:04:13.428Z,12.07
2018-09-08T08:06:41.837Z,12.05
2018-09-08T08:09:10.335Z,12.08
2018-09-08T08:11:38.726Z,12.13
2018-09-08T08:14:07.164Z,12.18
2018-09-08T08:16:35.585Z,12.20
2018-09-08T08:19:04.056Z,12.26
2018-09-08T08:21:32.474Z,12.29
2018-09-08T08:24:00.913Z,12.35
2018-09-08T08:26:29.323Z,12.38
2018-09-08T08:28:57.863Z,12.41
2018-09-08T08:31:26.332Z,12.44
2018-09-08T08:33:54.799Z,12.49
2018-09-08T08:36:23.227Z,12.55
2018-09-08T08:38:51.662Z,12.62
2018-09-08T08:41:20.268Z,12.62
2018-09-08T08:43:48.709Z,12.61
2018-09-08T08:46:17.185Z,12.68
2018-09-08T08:48:45.580Z,12.69
2018-09-08T08:51:25.287Z,12.72
2018-09-08T08:54:05.562Z,12.74
2018-09-08T08:56:34.008Z,12.82
2018-09-08T08:59:02.466Z,12.90
2018-09-08T09:01:30.858Z,13.01
2018-09-08T09:03:59.279Z,13.03
2018-09-08T09:06:27.701Z,13.05
2018-09-08T09:08:56.121Z,13.04
2018-09-08T09:11:24.544Z,13.06
2018-09-08T09:13:52.956Z,13.08
2018-09-08T09:16:23.106Z,13.19
2018-09-08T09:19:05.001Z,13.25
2018-09-08T09:21:44.720Z,13.38
2018-09-08T09:24:25.329Z,13.43
2018-09-08T09:26:53.389Z,13.53
2018-09-08T09:29:22.132Z,13.69
2018-09-08T09:31:51.197Z,13.76
2018-09-08T09:34:19.623Z,13.68
2018-09-08T09:36:47.976Z,13.69
2018-09-08T09:39:16.395Z,13.77
2018-09-08T09:41:44.897Z,13.82
2018-09-08T09:44:13.342Z,13.89
2018-09-08T09:46:42.171Z,13.85
2018-09-08T09:49:10.581Z,13.87
2018-09-08T09:51:39.044Z,13.89
2018-09-08T09:54:07.461Z,13.91
2018-09-08T09:56:35.848Z,13.99
2018-09-08T09:59:04.318Z,14.20
2018-09-08T10:01:38.098Z,14.38
2018-09-08T10:04:06.497Z,14.40
2018-09-08T10:06:35.002Z,14.48
2018-09-08T10:09:03.543Z,14.58
2018-09-08T10:11:31.978Z,14.59
2018-09-08T10:14:00.364Z,14.77
2018-09-08T10:16:28.788Z,14.72
2018-09-08T10:18:57.237Z,14.73
2018-09-08T10:21:25.699Z,14.72
2018-09-08T10:24:05.152Z,14.88
2018-09-08T10:26:22.648Z,14.95
2018-09-08T10:28:51.015Z,14.88
2018-09-08T10:31:19.444Z,14.84
2018-09-08T10:33:47.905Z,15.08
2018-09-08T10:36:16.372Z,15.15
2018-09-08T10:38:44.788Z,15.11
2018-09-08T10:41:13.195Z,15.17
2018-09-08T10:43:41.672Z,15.24
2018-09-08T10:46:10.130Z,15.24
2018-09-08T10:48:38.621Z,15.34
2018-09-08T10:52:19.131Z,15.30
2018-09-08T10:54:48.036Z,15.16
2018-09-08T10:57:16.561Z,15.09
2018-09-08T10:59:44.953Z,15.18
2018-09-08T11:02:13.748Z,15.30
2018-09-08T11:04:41.999Z,15.41
2018-09-08T11:07:10.768Z,15.45
2018-09-08T11:09:39.165Z,15.47
2018-09-08T11:12:07.617Z,15.62
2018-09-08T11:14:36.034Z,15.73
2018-09-08T11:17:04.472Z,15.64
2018-09-08T11:19:33.168Z,15.60
2018-09-08T11:22:01.668Z,15.65
2018-09-08T11:24:30.041Z,15.73
2018-09-08T11:26:58.627Z,15.72
2018-09-08T11:29:27.004Z,15.89
2018-09-08T11:31:55.466Z,16.09
2018-09-08T11:34:24.024Z,16.19
2018-09-08T11:36:52.617Z,16.40
2018-09-08T11:39:21.048Z,16.42
2018-09-08T11:41:49.818Z,16.35
2018-09-08T11:44:18.227Z,16.41
2018-09-08T11:46:46.701Z,16.40
2018-09-08T11:49:15.108Z,16.32
2018-09-08T11:51:44.360Z,16.22
2018-09-08T11:54:12.816Z,16.15
2018-09-08T11:56:41.220Z,16.07
2018-09-08T11:59:09.658Z,15.93
2018-09-08T12:01:38.032Z,15.82
2018-09-08T12:04:06.921Z,15.86
2018-09-08T12:06:35.436Z,16.09
2018-09-08T12:09:05.079Z,16.35
2018-09-08T12:11:33.485Z,16.52
2018-09-08T12:14:01.950Z,16.51
2018-09-08T12:16:30.398Z,16.37
2018-09-08T12:18:58.991Z,16.30
2018-09-08T12:21:27.394Z,16.17
2018-09-08T12:23:55.797Z,16.31
2018-09-08T12:26:24.241Z,16.83
2018-09-08T12:28:52.625Z,17.57
2018-09-08T12:31:21.092Z,18.12
2018-09-08T12:33:49.560Z,17.99
2018-09-08T12:36:17.958Z,17.94
2018-09-08T12:38:46.357Z,18.18
2018-09-08T12:41:14.828Z,17.87
2018-09-08T12:43:43.274Z,18.32
2018-09-08T12:46:11.816Z,19.05
2018-09-08T12:48:40.242Z,18.40
2018-09-08T12:51:08.636Z,18.46
2018-09-08T12:53:37.112Z,18.96
2018-09-08T12:56:05.664Z,18.76
2018-09-08T12:58:34.189Z,18.44
2018-09-08T13:01:02.613Z,18.07
2018-09-08T13:03:31.035Z,17.79
2018-09-08T13:06:00.301Z,17.63
2018-09-08T13:08:28.822Z,17.50
2018-09-08T13:10:57.293Z,17.76
2018-09-08T13:13:25.748Z,18.17
2018-09-08T13:15:54.203Z,18.42
2018-09-08T13:18:22.659Z,18.93
2018-09-08T13:20:51.076Z,18.75
2018-09-08T13:23:19.600Z,18.83
2018-09-08T13:25:48.032Z,18.82
2018-09-08T13:28:17.281Z,18.67
2018-09-08T13:30:45.775Z,18.65
2018-09-08T13:33:14.201Z,18.49
2018-09-08T13:35:42.637Z,18.28
2018-09-08T13:38:11.050Z,18.01
2018-09-08T13:40:39.471Z,18.00
2018-09-08T13:43:07.868Z,17.91
2018-09-08T13:45:36.333Z,18.06
2018-09-08T13:48:05.751Z,18.24
2018-09-08T13:50:34.165Z,18.27
2018-09-08T13:53:02.534Z,18.31
2018-09-08T13:55:30.937Z,18.28
2018-09-08T13:57:59.403Z,18.20
2018-09-08T14:00:27.850Z,18.23
2018-09-08T14:02:56.333Z,18.13
2018-09-08T14:05:24.768Z,17.97
2018-09-08T14:07:55.407Z,17.93
2018-09-08T14:10:23.873Z,17.81
2018-09-08T14:12:52.299Z,17.73
2018-09-08T14:15:20.903Z,17.68
2018-09-08T14:17:49.255Z,17.71
2018-09-08T14:20:17.665Z,17.77
2018-09-08T14:22:46.059Z,17.80
2018-09-08T14:25:14.464Z,17.84
2018-09-08T14:27:42.870Z,17.92
2018-09-08T14:30:11.279Z,17.95
2018-09-08T14:32:39.677Z,17.98
2018-09-08T14:35:08.127Z,17.92
2018-09-08T14:37:36.532Z,17.90
2018-09-08T14:40:05.098Z,17.85
2018-09-08T14:42:33.510Z,17.88
2018-09-08T14:45:01.986Z,17.89
2018-09-08T14:47:30.462Z,17.88
2018-09-08T14:49:58.837Z,17.89
2018-09-08T14:52:27.241Z,17.90
2018-09-08T14:54:55.684Z,17.95
2018-09-08T14:57:24.116Z,17.95
2018-09-08T14:59:52.535Z,17.94
2018-09-08T15:02:21.064Z,17.89
2018-09-08T15:04:49.546Z,17.93
2018-09-08T15:07:17.879Z,17.93
2018-09-08T15:09:46.286Z,17.89
2018-09-08T15:12:14.750Z,17.93
2018-09-08T15:14:43.187Z,17.91
2018-09-08T15:17:11.596Z,17.89
2018-09-08T15:19:40.076Z,17.80
2018-09-08T15:22:08.501Z,17.77
2018-09-08T15:24:37.027Z,17.80
2018-09-08T15:27:05.900Z,17.81
2018-09-08T15:29:34.321Z,17.80
2018-09-08T15:32:02.800Z,17.72
2018-09-08T15:34:31.263Z,17.66
2018-09-08T15:36:59.662Z,17.60
2018-09-08T15:39:28.129Z,17.57
2018-09-08T15:41:56.540Z,17.57
2018-09-08T15:44:24.972Z,17.54
2018-09-08T15:46:53.369Z,17.51
2018-09-08T15:49:21.783Z,17.50
2018-09-08T15:51:50.229Z,17.48
2018-09-08T15:54:18.674Z,17.52
2018-09-08T15:56:47.077Z,17.55
2018-09-08T15:59:15.509Z,17.53
2018-09-08T16:01:43.919Z,17.50
2018-09-08T16:04:12.322Z,17.50
2018-09-08T16:06:40.719Z,17.48
2018-09-08T16:09:09.139Z,17.44
2018-09-08T16:11:37.563Z,17.42
2018-09-08T16:14:06.062Z,17.39
2018-09-08T16:16:34.508Z,17.33
2018-09-08T16:19:02.960Z,17.25
2018-09-08T16:21:31.367Z,17.18
2018-09-08T16:23:59.801Z,17.11
2018-09-08T16:26:28.243Z,17.10
2018-09-08T16:28:56.660Z,17.08
2018-09-08T16:31:25.052Z,17.05
2018-09-08T16:33:53.478Z,17.03
2018-09-08T16:36:21.921Z,17.02
2018-09-08T16:38:50.436Z,17.00
2018-09-08T16:41:18.820Z,16.97
2018-09-08T16:43:47.225Z,16.94
2018-09-08T16:46:15.704Z,16.89
2018-09-08T16:48:44.209Z,16.89
2018-09-08T16:51:12.663Z,16.90
2018-09-08T16:53:41.109Z,16.88
2018-09-08T16:56:09.569Z,16.87
2018-09-08T16:58:38.029Z,16.83
2018-09-08T17:01:06.720Z,16.79
2018-09-08T17:03:35.108Z,16.73
2018-09-08T17:06:03.551Z,16.71
2018-09-08T17:08:31.998Z,16.74
2018-09-08T17:11:00.416Z,16.72
2018-09-08T17:13:28.814Z,16.69
2018-09-08T17:15:57.300Z,16.66
2018-09-08T17:18:25.741Z,16.64
2018-09-08T17:20:54.209Z,16.60
2018-09-08T17:23:22.689Z,16.60
2018-09-08T17:25:51.139Z,16.58
2018-09-08T17:28:19.666Z,16.54
2018-09-08T17:30:48.059Z,16.52
2018-09-08T17:33:16.481Z,16.48
2018-09-08T17:35:44.911Z,16.45
2018-09-08T17:38:13.353Z,16.41
2018-09-08T17:40:41.828Z,16.39
2018-09-08T17:43:10.231Z,16.35
2018-09-08T17:45:38.704Z,16.31
2018-09-08T17:48:07.148Z,16.30
2018-09-08T17:50:35.577Z,16.23
2018-09-08T17:53:04.022Z,16.23
2018-09-08T17:55:32.492Z,16.22
2018-09-08T17:58:00.893Z,16.19
2018-09-08T18:00:29.348Z,16.17
2018-09-08T18:02:57.769Z,16.14
2018-09-08T18:05:26.205Z,16.09
2018-09-08T18:07:54.683Z,16.09
2018-09-08T18:10:23.176Z,16.03
2018-09-08T18:12:51.637Z,16.01
2018-09-08T18:15:20.069Z,16.02
2018-09-08T18:17:48.518Z,15.98
2018-09-08T18:20:16.980Z,15.97
2018-09-08T18:22:45.417Z,15.94
2018-09-08T18:25:13.824Z,15.89
2018-09-08T18:27:42.237Z,15.89
2018-09-08T18:30:10.728Z,15.87
2018-09-08T18:32:39.222Z,15.83
2018-09-08T18:35:08.602Z,15.82
2018-09-08T18:37:37.063Z,15.82
2018-09-08T18:40:05.853Z,15.81
2018-09-08T18:42:34.276Z,15.77
2018-09-08T18:45:03.368Z,15.70
2018-09-08T18:47:32.494Z,15.68
2018-09-08T18:50:00.945Z,15.70
2018-09-08T18:52:29.369Z,15.68
2018-09-08T18:54:58.667Z,15.69
2018-09-08T18:57:27.093Z,15.66
2018-09-08T18:59:55.561Z,15.64
2018-09-08T19:02:23.985Z,15.63
2018-09-08T19:04:52.490Z,15.59
2018-09-08T19:07:20.890Z,15.57
2018-09-08T19:10:06.643Z,15.54
2018-09-08T19:12:36.070Z,15.53
2018-09-08T19:15:09.729Z,15.49
2018-09-08T19:17:38.206Z,15.46
2018-09-08T19:20:12.560Z,15.43
2018-09-08T19:22:41.079Z,15.43
2018-09-08T19:25:09.596Z,15.40
2018-09-08T19:27:38.687Z,15.38
2018-09-08T19:30:07.589Z,15.33
2018-09-08T19:32:36.068Z,15.32
2018-09-08T19:35:09.801Z,15.27
2018-09-08T19:37:38.255Z,15.23
2018-09-08T19:40:11.840Z,15.23
2018-09-08T19:42:40.336Z,15.22
2018-09-08T19:45:09.020Z,15.23
2018-09-08T19:47:42.731Z,15.23
2018-09-08T19:50:11.141Z,15.23
2018-09-08T19:52:44.874Z,15.26
2018-09-08T19:55:13.337Z,15.24
2018-09-08T19:58:50.603Z,15.17
2018-09-08T20:01:18.993Z,15.15
2018-09-08T20:03:47.441Z,15.07
2018-09-08T20:06:15.901Z,15.05
2018-09-08T20:08:44.402Z,15.05
2018-09-08T20:11:12.853Z,15.04
2018-09-08T20:13:41.325Z,15.03
2018-09-08T20:16:09.740Z,14.83
2018-09-08T20:18:38.164Z,14.93
2018-09-08T20:21:06.676Z,14.95
2018-09-08T20:23:35.122Z,14.95
2018-09-08T20:26:03.766Z,14.97
2018-09-08T20:28:32.253Z,15.01
2018-09-08T20:31:00.841Z,15.06
2018-09-08T20:33:29.902Z,15.07
2018-09-08T20:35:58.359Z,15.08
2018-09-08T20:38:27.154Z,15.05
2018-09-08T20:40:55.660Z,15.04
2018-09-08T20:43:24.761Z,15.04
2018-09-08T20:45:53.389Z,15.02
2018-09-08T20:48:21.867Z,15.02
2018-09-08T20:50:51.238Z,15.01
2018-09-08T20:53:19.673Z,14.99
2018-09-08T20:55:48.165Z,14.96
2018-09-08T20:58:16.598Z,14.90
2018-09-08T21:00:45.049Z,14.86
2018-09-08T21:03:13.470Z,14.87
2018-09-08T21:05:41.936Z,14.86
2018-09-08T21:08:10.385Z,14.83
2018-09-08T21:10:38.792Z,14.85
2018-09-08T21:13:07.313Z,14.87
2018-09-08T21:15:36.284Z,14.85
2018-09-08T21:18:04.744Z,14.77
2018-09-08T21:20:33.199Z,14.75
2018-09-08T21:23:01.612Z,14.74
2018-09-08T21:25:30.052Z,14.74
2018-09-08T21:27:58.516Z,14.73
2018-09-08T21:30:27.107Z,14.71
2018-09-08T21:32:55.559Z,14.69
2018-09-08T21:35:24.124Z,14.67
2018-09-08T21:37:52.597Z,14.69
2018-09-08T21:40:21.038Z,14.70
2018-09-08T21:42:49.559Z,14.71
2018-09-08T21:45:18.038Z,14.73
2018-09-08T21:47:46.537Z,14.74
2018-09-08T21:50:15.044Z,14.71
2018-09-08T21:52:43.465Z,14.64
2018-09-08T21:55:11.949Z,14.58
2018-09-08T21:57:40.339Z,14.56
2018-09-08T22:00:08.845Z,14.56
2018-09-08T22:02:37.260Z,14.57
2018-09-08T22:05:05.868Z,14.55
2018-09-08T22:07:34.332Z,14.52
2018-09-08T22:10:02.816Z,14.50
2018-09-08T22:12:31.275Z,14.46
2018-09-08T22:14:59.724Z,14.44
2018-09-08T22:17:28.188Z,14.46
2018-09-08T22:19:56.656Z,14.49
2018-09-08T22:22:25.164Z,14.48
2018-09-08T22:24:53.598Z,14.47
2018-09-08T22:27:22.071Z,14.46
2018-09-08T22:29:50.580Z,14.44
2018-09-08T22:32:18.984Z,14.35
2018-09-08T22:34:47.399Z,14.38
2018-09-08T22:37:15.821Z,14.43
2018-09-08T22:39:44.240Z,14.33
2018-09-08T22:42:12.671Z,14.29
2018-09-08T22:44:41.133Z,14.30
2018-09-08T22:47:09.564Z,14.28
2018-09-08T22:49:37.994Z,14.28
2018-09-08T22:52:06.448Z,14.29
2018-09-08T22:54:34.861Z,14.28
2018-09-08T22:57:03.235Z,14.27
2018-09-08T22:59:32.032Z,14.19
2018-09-08T23:02:00.538Z,14.18
2018-09-08T23:04:28.926Z,14.17
2018-09-08T23:06:57.347Z,14.17
2018-09-08T23:09:25.748Z,14.20
2018-09-08T23:11:54.216Z,14.23
2018-09-08T23:14:22.673Z,14.25
2018-09-08T23:16:51.186Z,14.23
2018-09-08T23:19:19.616Z,14.21
2018-09-08T23:21:48.082Z,14.23
2018-09-08T23:24:16.524Z,14.22
2018-09-08T23:26:45.016Z,14.21
2018-09-08T23:29:13.429Z,14.20
2018-09-08T23:31:41.878Z,13.53
2018-09-08T23:34:10.330Z,14.22
2018-09-08T23:36:38.755Z,14.24
2018-09-08T23:39:07.532Z,14.22
2018-09-08T23:41:35.932Z,14.22
2018-09-08T23:44:04.369Z,14.19
2018-09-08T23:46:32.823Z,14.17
2018-09-08T23:49:01.248Z,14.12
2018-09-08T23:51:29.647Z,14.08
2018-09-08T23:53:58.111Z,14.06
2018-09-08T23:56:26.544Z,14.07
2018-09-08T23:58:54.992Z,14.08
